Terminal Aerodrome Forecast
Issued by NWS Portland, OR

Home | Current Version | Previous Version | Text Only | Print | Product List | Glossary On
Versions: 1 2 3 4 5 6 7 8 9 10 11 12 13 14 15 16 17 18 19 20 21 22 23 24 25 26 27 28 29 30 31 32 33 34 35 36 37 38 39 40 41 42 43 44 45 46 47 48
000
FTUS46 KPQR 181502 AAB
TAFPDX
TAF AMD
KPDX 181502Z 1815/1912 VRB03KT P6SM -SHRA SCT035 BKN050 OVC070
      TEMPO 1815/1817 5SM -SHRA BR BKN035 OVC050
     FM181700 VRB03KT P6SM BKN050 OVC070
     FM182000 28006KT P6SM VCSH BKN050 OVC070
     FM190300 VRB03KT P6SM BKN050 OVC070
     FM191100 VRB03KT P6SM BKN025 OVC035=

USA.gov is the U.S. government's official web portal to all federal, state and local government web resources and services.